Map

Track Data

SID SEASON NUMBER BASIN SUBBASIN NAME ISO_TIME NATURE LAT LON WMO_WIND WMO_PRES WMO_AGENCY TRACK_TYPE DIST2LAND LANDFALL IFLAG USA_AGENCY USA_ATCF_ID USA_LAT USA_LON USA_RECORD USA_STATUS USA_WIND USA_PRES USA_SSHS USA_R34_NE USA_R34_SE USA_R34_SW USA_R34_NW USA_R50_NE USA_R50_SE USA_R50_SW USA_R50_NW USA_R64_NE USA_R64_SE USA_R64_SW USA_R64_NW USA_POCI USA_ROCI USA_RMW USA_EYE TOKYO_LAT TOKYO_LON TOKYO_GRADE TOKYO_WIND TOKYO_PRES TOKYO_R50_DIR TOKYO_R50_LONG TOKYO_R50_SHORT TOKYO_R30_DIR TOKYO_R30_LONG TOKYO_R30_SHORT TOKYO_LAND CMA_LAT CMA_LON CMA_CAT CMA_WIND CMA_PRES HKO_LAT HKO_LON HKO_CAT HKO_WIND HKO_PRES NEWDELHI_LAT NEWDELHI_LON NEWDELHI_GRADE NEWDELHI_WIND NEWDELHI_PRES NEWDELHI_CI NEWDELHI_DP NEWDELHI_POCI REUNION_LAT REUNION_LON REUNION_TYPE REUNION_WIND REUNION_PRES REUNION_TNUM REUNION_CI REUNION_RMW REUNION_R34_NE REUNION_R34_SE REUNION_R34_SW REUNION_R34_NW REUNION_R50_NE REUNION_R50_SE REUNION_R50_SW REUNION_R50_NW REUNION_R64_NE REUNION_R64_SE REUNION_R64_SW REUNION_R64_NW BOM_LAT BOM_LON BOM_TYPE BOM_WIND BOM_PRES BOM_TNUM BOM_CI BOM_RMW BOM_R34_NE BOM_R34_SE BOM_R34_SW BOM_R34_NW BOM_R50_NE BOM_R50_SE BOM_R50_SW BOM_R50_NW BOM_R64_NE BOM_R64_SE BOM_R64_SW BOM_R64_NW BOM_ROCI BOM_POCI BOM_EYE BOM_POS_METHOD BOM_PRES_METHOD NADI_LAT NADI_LON NADI_CAT NADI_WIND NADI_PRES WELLINGTON_LAT WELLINGTON_LON WELLINGTON_WIND WELLINGTON_PRES DS824_LAT DS824_LON DS824_STAGE DS824_WIND DS824_PRES TD9636_LAT TD9636_LON TD9636_STAGE TD9636_WIND TD9636_PRES TD9635_LAT TD9635_LON TD9635_WIND TD9635_PRES TD9635_ROCI NEUMANN_LAT NEUMANN_LON NEUMANN_CLASS NEUMANN_WIND NEUMANN_PRES MLC_LAT MLC_LON MLC_CLASS MLC_WIND MLC_PRES USA_GUST BOM_GUST BOM_GUST_PER REUNION_GUST REUNION_GUST_PER USA_SEAHGT USA_SEARAD_NE USA_SEARAD_SE USA_SEARAD_SW USA_SEARAD_NW STORM_SPEED STORM_DIR
1995287N08163 1995 81 WP MM WARD 1995-10-13 18:00:00 NR 8.40000 162.500 main 1749 1749 O_____________ jtwc_wp WP261995 8.40000 162.500 15 -1 9 348
1995287N08163 1995 81 WP MM WARD 1995-10-13 21:00:00 NR 8.85752 162.405 main 1786 1786 P_____________ WP261995 8.85752 162.405 17 -1 9 348
1995287N08163 1995 81 WP MM WARD 1995-10-14 00:00:00 NR 9.30000 162.300 main 1816 1816 O_____________ jtwc_wp WP261995 9.30000 162.300 20 -1 9 345
1995287N08163 1995 81 WP MM WARD 1995-10-14 03:00:00 NR 9.71497 162.172 main 1844 1844 P_____________ WP261995 9.71497 162.172 20 -1 9 340
1995287N08163 1995 81 WP MM WARD 1995-10-14 06:00:00 NR 10.1000 162.000 main 1866 1866 O_____________ jtwc_wp WP261995 10.1000 162.000 20 -1 8 334
1995287N08163 1995 81 WP MM WARD 1995-10-14 09:00:00 NR 10.4724 161.795 main 1889 1889 P_____________ WP261995 10.4724 161.795 20 -1 9 325
1995287N08163 1995 81 WP MM WARD 1995-10-14 12:00:00 NR 10.8000 161.500 main 1898 1892 O_____________ jtwc_wp WP261995 10.8000 161.500 20 -1 9 310
1995287N08163 1995 81 WP MM WARD 1995-10-14 15:00:00 NR 11.0650 161.087 main 1902 1888 P_____________ WP261995 11.0650 161.087 20 -1 10 300
1995287N08163 1995 81 WP MM WARD 1995-10-14 18:00:00 NR 11.3000 160.600 main 1892 1883 O_____________ jtwc_wp WP261995 11.3000 160.600 20 -1 11 297
1995287N08163 1995 81 WP MM WARD 1995-10-14 21:00:00 NR 11.5574 160.115 main 1892 1880 P_____________ WP261995 11.5574 160.115 20 -1 11 297
1995287N08163 1995 81 WP MM WARD 1995-10-15 00:00:00 NR 11.8000 159.600 main 1885 1874 O_____________ jtwc_wp WP261995 11.8000 159.600 20 -1 11 294
1995287N08163 1995 81 WP MM WARD 1995-10-15 03:00:00 NR 12.0149 159.057 main 1879 1869 P_____________ WP261995 12.0149 159.057 20 -1 12 290
1995287N08163 1995 81 WP MM WARD 1995-10-15 06:00:00 NR 12.2000 158.500 main 1869 1854 O_____________ jtwc_wp WP261995 12.2000 158.500 20 -1 11 288
1995287N08163 1995 81 WP MM WARD 1995-10-15 09:00:00 NR 12.3649 157.950 main 1860 1846 P_____________ WP261995 12.3649 157.950 20 -1 11 286
1995287N08163 1995 81 WP MM WARD 1995-10-15 12:00:00 NR 12.5000 157.400 main 1848 1838 O_____________ jtwc_wp WP261995 12.5000 157.400 20 -1 11 283
1995287N08163 1995 81 WP MM WARD 1995-10-15 15:00:00 NR 12.6073 156.865 main 1838 1825 P_____________ WP261995 12.6073 156.865 20 -1 11 281
1995287N08163 1995 81 WP MM WARD 1995-10-15 18:00:00 NR 12.7000 156.300 main 1825 1815 O_____________ jtwc_wp WP261995 12.7000 156.300 20 -1 12 279
1995287N08163 1995 81 WP MM WARD 1995-10-15 21:00:00 NR 12.7999 155.665 main 1815 1803 P_____________ WP261995 12.7999 155.665 20 -1 13 279
1995287N08163 1995 81 WP MM WARD 1995-10-16 00:00:00 NR 12.9000 155.000 main 1805 1800 O_____________ jtwc_wp WP261995 12.9000 155.000 20 -1 13 279
1995287N08163 1995 81 WP MM WARD 1995-10-16 03:00:00 NR 13.0072 154.365 main 1801 1763 P_____________ WP261995 13.0072 154.365 22 -1 13 267
1995287N08163 1995 81 WP MM WARD 1995-10-16 06:00:00 TS 12.8333 153.633 1006 tokyo main 1762 1756 OOO___________ jtwc_wp WP261995 13.1000 153.700 25 -1 12.3000 153.500 2 1006 0 0 0 12.3000 153.500 1 23 1006 15 267
1995287N08163 1995 81 WP MM WARD 1995-10-16 09:00:00 TS 12.9189 152.867 main 1761 1759 PPP___________ WP261995 13.1573 152.980 27 -1 12.6805 152.753 2 1006 0 0 12.6805 152.753 1 26 1005 15 279
1995287N08163 1995 81 WP MM WARD 1995-10-16 12:00:00 TS 13.0727 152.091 1006 tokyo main 1775 1767 OOOO__________ jtwc_wp WP261995 13.2000 152.200 30 -1 13.0000 152.000 2 1006 0 0 0 13.0000 152.000 1 29 1004 13.0000 152.200 TD 25 1004 16 281
1995287N08163 1995 81 WP MM WARD 1995-10-16 15:00:00 TS 13.2245 151.279 main 1767 1761 PPPP__________ WP261995 13.2349 151.365 32 -1 13.2221 151.230 2 1005 0 0 13.2221 151.230 1 29 1003 13.2131 151.303 TD 25 1004 17 281
1995287N08163 1995 81 WP MM WARD 1995-10-16 18:00:00 TS 13.3733 150.427 1004 tokyo main 1767 1760 OOOO__________ jtwc_wp WP261995 13.3000 150.500 35 0 13.4000 150.400 2 1004 0 0 0 13.4000 150.400 1 29 1002 13.4000 150.400 TD 25 1004 17 281
1995287N08163 1995 81 WP MM WARD 1995-10-16 21:00:00 TS 13.5461 149.516 main 1763 1763 PPPP__________ WP261995 13.4196 149.657 40 0 13.6075 149.458 2 1003 0 0 13.6075 149.458 1 31 1000 13.5498 149.492 TD 27 1002 18 281
1995287N08163 1995 81 WP MM WARD 1995-10-17 00:00:00 TS 13.7250 148.600 35 1002 tokyo main 1775 1774 OOOO__________ jtwc_wp WP261995 13.6000 148.800 45 0 13.8000 148.500 3 35 1002 0 9 60 60 0 13.8000 148.500 2 34 998 13.7000 148.600 TD 30 1000 18 282
1995287N08163 1995 81 WP MM WARD 1995-10-17 03:00:00 TS 13.9122 147.722 main 1792 1792 PPPP__________ WP261995 13.8423 147.900 45 0 13.9571 147.627 3 37 1000 0 9 65 65 13.9571 147.627 2 36 998 13.8922 147.735 TD 32 999 17 283
1995287N08163 1995 81 WP MM WARD 1995-10-17 06:00:00 TS 14.1000 146.875 40 998 tokyo main 1814 1814 OOOO__________ jtwc_wp WP261995 14.1000 147.000 45 0 14.1000 146.800 3 40 998 0 9 70 70 0 14.1000 146.800 2 38 998 14.1000 146.900 TS 35 998 17 283
1995287N08163 1995 81 WP MM WARD 1995-10-17 09:00:00 TS 14.2728 146.049 main 1838 1838 PPPP__________ WP261995 14.3072 146.135 50 0 14.2422 145.992 3 40 996 0 9 75 75 14.2423 145.977 2 38 996 14.2997 146.092 TS 37 996 16 283
1995287N08163 1995 81 WP MM WARD 1995-10-17 12:00:00 TS 14.4500 145.250 40 994 tokyo main 1865 1854 OOOO__________ jtwc_wp WP261995 14.5000 145.300 55 0 14.4000 145.200 3 40 994 0 9 80 80 0 14.4000 145.200 2 38 994 14.5000 145.300 TS 40 994 16 283
1995287N08163 1995 81 WP MM WARD 1995-10-17 15:00:00 TS 14.6328 144.473 main 1885 1885 PPPP__________ WP261995 14.6921 144.492 60 0 14.5773 144.392 3 42 992 0 9 85 85 14.5694 144.507 2 41 992 14.6922 144.500 TS 45 989 16 285
1995287N08163 1995 81 WP MM WARD 1995-10-17 18:00:00 TS 14.8500 143.700 45 990 tokyo main 1931 1908 OOOO__________ jtwc_wp WP261995 14.9000 143.700 65 1 14.8000 143.600 3 45 990 0 9 90 90 0 14.8000 143.800 2 44 990 14.9000 143.700 STS 50 985 16 288
1995287N08163 1995 81 WP MM WARD 1995-10-17 21:00:00 TS 15.1224 142.892 main 1908 1828 PPPP__________ WP261995 15.1348 142.892 70 1 15.0848 142.835 3 50 985 0 9 95 95 15.1352 142.950 2 51 985 15.1348 142.892 STS 55 980 17 290
1995287N08163 1995 81 WP MM WARD 1995-10-18 00:00:00 TS 15.4250 142.100 55 980 tokyo main 1828 1760 OOOO__________ jtwc_wp WP261995 15.4000 142.100 75 1 15.4000 142.100 4 55 980 9 40 40 9 100 100 0 15.5000 142.100 3 58 980 15.4000 142.100 STS 60 975 16 292
1995287N08163 1995 81 WP MM WARD 1995-10-18 03:00:00 TS 15.7172 141.354 main 1760 1693 PPPP__________ WP261995 15.6848 141.327 82 1 15.6923 141.385 4 60 975 9 42 42 9 105 105 15.8071 141.370 3 63 975 15.6847 141.335 STS 62 972 15 293
1995287N08163 1995 81 WP MM WARD 1995-10-18 06:00:00 TS 16.0250 140.650 65 970 tokyo main 1693 1628 OOOO__________ jtwc_wp WP261995 16.0000 140.600 90 2 16.0000 140.700 5 65 970 9 45 45 9 110 110 0 16.1000 140.700 4 68 970 16.0000 140.600 T 65 970 15 295
1995287N08163 1995 81 WP MM WARD 1995-10-18 09:00:00 TS 16.3396 139.985 main 1628 1576 PPPP__________ WP261995 16.3346 139.942 95 2 16.3271 140.057 5 67 965 9 47 47 9 115 115 16.3697 140.049 4 72 965 16.3272 139.892 T 67 967 14 298
1995287N08163 1995 81 WP MM WARD 1995-10-18 12:00:00 TS 16.7000 139.325 70 960 tokyo main 1569 1522 OOOO__________ jtwc_wp WP261995 16.7000 139.300 100 3 16.7000 139.400 5 70 960 9 50 50 9 120 120 0 16.7000 139.400 4 77 960 16.7000 139.200 T 70 965 15 301
1995287N08163 1995 81 WP MM WARD 1995-10-18 15:00:00 TS 17.1293 138.614 main 1512 1462 PPPP__________ WP261995 17.0850 138.592 105 3 17.1275 138.657 5 72 957 9 55 55 9 135 135 17.1773 138.715 4 77 960 17.1273 138.492 T 72 962 16 303
1995287N08163 1995 81 WP MM WARD 1995-10-18 18:00:00 TS 17.6000 137.900 75 955 tokyo main 1462 1413 OOOO__________ jtwc_wp WP261995 17.5000 137.900 110 3 17.6000 137.900 5 75 955 9 60 60 9 150 150 0 17.7000 138.000 4 77 960 17.6000 137.800 T 75 960 16 304
1995287N08163 1995 81 WP MM WARD 1995-10-18 21:00:00 TS 18.0581 137.195 main 1418 1383 PPPP__________ WP261995 17.9197 137.277 115 4 18.0850 137.162 5 77 952 9 60 60 9 150 150 18.1427 137.220 4 77 960 18.0849 137.120 T 77 957 16 307
1995287N08163 1995 81 WP MM WARD 1995-10-19 00:00:00 TS 18.5500 136.550 80 950 tokyo main 1388 1360 OOOO__________ jtwc_wp WP261995 18.4000 136.700 120 4 18.6000 136.500 5 80 950 9 60 60 9 150 150 0 18.6000 136.500 4 77 960 18.6000 136.500 T 80 955 15 312
1995287N08163 1995 81 WP MM WARD 1995-10-19 03:00:00 TS 19.0898 135.994 main 1363 1342 PPPP__________ WP261995 18.9624 136.127 125 4 19.1347 135.947 5 82 947 9 65 65 9 165 165 19.1272 135.940 4 82 957 19.1348 135.962 T 82 952 15 319
1995287N08163 1995 81 WP MM WARD 1995-10-19 06:00:00 TS 19.6750 135.525 85 945 tokyo main 1347 1273 OOOO__________ jtwc_wp WP261995 19.6000 135.600 130 4 19.7000 135.500 5 85 945 9 70 70 9 180 180 0 19.7000 135.500 5 87 955 19.7000 135.500 ST 85 950 15 325
1995287N08163 1995 81 WP MM WARD 1995-10-19 09:00:00 TS 20.3131 135.089 main 1273 1199 PPPP__________ WP261995 20.3225 135.090 135 4 20.3074 135.105 5 85 945 9 75 75 9 180 180 20.3074 135.105 5 87 955 20.3150 135.055 ST 87 947 15 330
1995287N08163 1995 81 WP MM WARD 1995-10-19 12:00:00 TS 20.9250 134.750 85 945 tokyo main 1199 1136 OOOO__________ jtwc_wp WP261995 21.0000 134.700 140 5 20.9000 134.800 5 85 945 9 80 80 9 180 180 0 20.9000 134.800 5 87 955 20.9000 134.700 ST 90 945 12 334
1995287N08163 1995 81 WP MM WARD 1995-10-19 15:00:00 TS 21.4280 134.515 main 1136 1080 PPPP__________ WP261995 21.4948 134.482 140 5 21.4224 134.562 5 85 942 9 85 85 9 190 190 21.4224 134.562 5 87 952 21.3724 134.455 ST 90 945 10 340
1995287N08163 1995 81 WP MM WARD 1995-10-19 18:00:00 TS 21.8750 134.375 85 940 tokyo main 1080 1035 OOOO__________ jtwc_wp WP261995 21.9000 134.400 140 5 21.9000 134.400 5 85 940 9 90 90 9 200 200 0 21.9000 134.400 5 87 950 21.8000 134.300 ST 90 945 9 345
1995287N08163 1995 81 WP MM WARD 1995-10-19 21:00:00 TS 22.3143 134.266 main 1035 989 PPPP__________ WP261995 22.3150 134.377 140 5 22.3575 134.262 5 85 940 9 95 95 9 210 210 22.3350 134.262 5 92 945 22.2500 134.163 ST 90 945 9 351
1995287N08163 1995 81 WP MM WARD 1995-10-20 00:00:00 TS 22.7500 134.225 85 940 tokyo main 979 937 OOOO__________ jtwc_wp WP261995 22.7000 134.400 140 5 22.8000 134.200 5 85 940 9 100 100 9 220 220 0 22.8000 134.200 5 97 940 22.7000 134.100 ST 90 945 9 357
1995287N08163 1995 81 WP MM WARD 1995-10-20 03:00:00 TS 23.2275 134.231 main 937 889 PPPP__________ WP261995 23.0650 134.393 137 5 23.2575 134.212 5 85 940 9 100 100 9 220 220 23.4300 134.212 5 97 940 23.1574 134.105 ST 90 945 9 5
1995287N08163 1995 81 WP MM WARD 1995-10-20 06:00:00 TS 23.6750 134.300 85 940 tokyo main 889 862 OOOO__________ jtwc_wp WP261995 23.4000 134.400 135 4 23.7000 134.300 5 85 940 9 100 100 9 220 220 0 24.0000 134.300 5 97 940 23.6000 134.200 ST 90 945 8 12
1995287N08163 1995 81 WP MM WARD 1995-10-20 09:00:00 TS 24.0312 134.409 main 862 836 PPPP__________ WP261995 23.6774 134.413 132 4 24.1300 134.427 5 85 942 9 100 100 9 220 220 24.3025 134.428 5 92 945 24.0150 134.370 ST 87 947 7 20
1995287N08163 1995 81 WP MM WARD 1995-10-20 12:00:00 TS 24.3500 134.575 85 945 tokyo main 830 810 OOOO__________ jtwc_wp WP261995 24.0000 134.500 130 4 24.5000 134.600 5 85 945 9 100 100 9 220 220 0 24.5000 134.600 5 87 950 24.4000 134.600 ST 85 950 7 27
1995287N08163 1995 81 WP MM WARD 1995-10-20 15:00:00 TS 24.6799 134.768 main 810 791 PPPP__________ WP261995 24.4849 134.690 127 4 24.7499 134.778 5 82 947 9 95 95 9 220 220 24.7274 134.778 5 82 955 24.7574 134.828 ST 82 952 8 31
1995287N08163 1995 81 WP MM WARD 1995-10-20 18:00:00 TS 25.0250 135.025 80 950 tokyo main 791 770 OOOO__________ jtwc_wp WP261995 25.0000 135.000 125 4 25.0000 135.000 5 80 950 9 90 90 9 220 220 0 25.0000 135.000 4 77 960 25.1000 135.100 T 80 955 9 35
1995287N08163 1995 81 WP MM WARD 1995-10-20 21:00:00 TS 25.4085 135.328 main 770 752 PPPP__________ WP261995 25.4224 135.405 117 4 25.3846 135.240 5 77 955 9 85 85 9 220 220 25.3846 135.240 4 77 962 25.4425 135.428 T 77 957 10 39
1995287N08163 1995 81 WP MM WARD 1995-10-21 00:00:00 TS 25.8000 135.725 75 960 tokyo main 752 745 OOOO__________ jtwc_wp WP261995 25.8000 135.900 110 3 25.8000 135.600 5 75 960 9 80 80 9 220 220 0 25.8000 135.600 4 77 965 25.8000 135.800 T 75 960 11 47
1995287N08163 1995 81 WP MM WARD 1995-10-21 03:00:00 TS 26.1549 136.222 main 744 744 PPPP__________ WP261995 26.1424 136.428 100 3 26.1501 136.148 5 72 962 9 75 75 9 210 210 26.1501 136.148 4 72 970 26.1772 136.163 T 72 962 12 53
1995287N08163 1995 81 WP MM WARD 1995-10-21 06:00:00 TS 26.5250 136.800 70 965 tokyo main 757 739 OOOO__________ jtwc_wp WP261995 26.5000 137.000 90 2 26.5000 136.800 5 70 965 9 70 70 9 200 200 0 26.5000 136.800 4 68 975 26.6000 136.600 T 70 965 13 54
1995287N08163 1995 81 WP MM WARD 1995-10-21 09:00:00 TS 26.9304 137.405 main 741 701 PPPP__________ WP261995 26.9272 137.585 87 2 26.8624 137.451 5 67 967 9 65 65 9 190 190 26.8624 137.451 4 66 975 27.0695 137.133 T 67 967 14 52
1995287N08163 1995 81 WP MM WARD 1995-10-21 12:00:00 TS 27.4000 138.050 65 970 tokyo main 704 669 OOOO__________ jtwc_wp WP261995 27.4000 138.200 85 2 27.3000 138.100 5 65 970 9 60 60 9 180 180 0 27.3000 138.100 4 64 975 27.6000 137.800 T 65 970 15 48
1995287N08163 1995 81 WP MM WARD 1995-10-21 15:00:00 TS 27.9538 138.699 main 662 640 PPPP__________ WP261995 27.8841 138.799 80 1 27.8772 138.708 5 62 972 9 55 55 9 170 170 27.8772 138.708 4 61 977 28.1770 138.583 T 62 972 17 46
1995287N08163 1995 81 WP MM WARD 1995-10-21 18:00:00 TS 28.5500 139.400 60 975 tokyo main 635 623 OOOO__________ jtwc_wp WP261995 28.4000 139.500 75 1 28.5000 139.300 4 60 975 9 50 50 9 160 160 0 28.5000 139.300 3 58 980 28.8000 139.500 STS 60 975 17 46
1995287N08163 1995 81 WP MM WARD 1995-10-21 21:00:00 TS 29.1247 140.090 main 625 585 PPPP__________ WP261995 28.9489 140.353 72 1 29.0391 139.754 4 57 977 9 40 40 9 155 155 29.0391 139.754 3 56 980 29.4718 140.498 STS 57 977 18 50
1995287N08163 1995 81 WP MM WARD 1995-10-22 00:00:00 TS 29.6733 140.960 55 980 tokyo main 584 559 OOOO__________ jtwc_wp WP261995 29.5000 141.400 70 1 29.6000 140.500 4 55 980 9 30 30 9 150 150 0 29.6000 140.500 3 54 980 30.1000 141.600 STS 55 980 22 59
1995287N08163 1995 81 WP MM WARD 1995-10-22 03:00:00 TS 30.2450 142.228 main 566 559 PPPP__________ WP261995 30.0132 142.589 65 1 30.2734 141.910 4 52 982 9 9 150 150 30.2734 141.910 3 51 982 30.5948 142.779 STS 52 982 27 66
1995287N08163 1995 81 WP MM WARD 1995-10-22 06:00:00 TS 30.7750 143.825 50 985 tokyo main 583 583 OOOO__________ jtwc_wp WP261995 30.5000 144.000 60 0 30.9000 143.700 4 50 985 0 9 150 150 0 30.9000 143.700 3 48 985 31.0000 144.000 STS 50 985 30 72
1995287N08163 1995 81 WP MM WARD 1995-10-22 09:00:00 TS 31.1884 145.552 main 657 657 PPP___________ WP261995 30.9566 145.619 55 0 31.3350 145.486 4 988 0 9 31.3587 145.549 3 41 990 STS 32 75
1995287N08163 1995 81 WP MM WARD 1995-10-22 12:00:00 MX 31.5667 147.400 992 tokyo main 754 754 OOO___________ jtwc_wp WP261995 31.4000 147.400 50 0 31.7000 147.400 6 992 0 0 0 31.7000 147.400 2 34 995 33 76
1995287N08163 1995 81 WP MM WARD 1995-10-22 15:00:00 ET 31.9834 149.302 main 876 876 PP____________ WP261995 31.8476 149.214 47 0 32.1191 149.390 6 994 0 0 2 34 76
1995287N08163 1995 81 WP MM WARD 1995-10-22 18:00:00 ET 32.4000 151.300 996 tokyo main 1023 1023 OO____________ jtwc_wp WP261995 32.3000 151.100 45 0 32.5000 151.500 6 996 0 0 0 35 78
1995287N08163 1995 81 WP MM WARD 1995-10-22 21:00:00 ET 32.7384 153.348 main 1185 1185 PP____________ WP261995 32.7463 153.007 45 0 32.7306 153.689 6 994 0 0 36 79
1995287N08163 1995 81 WP MM WARD 1995-10-23 00:00:00 ET 33.1000 155.500 992 tokyo main 1366 1366 OO____________ jtwc_wp WP261995 33.2000 155.000 45 0 33.0000 156.000 6 992 0 0 0 38 78
1995287N08163 1995 81 WP MM WARD 1995-10-23 03:00:00 ET 33.5304 157.776 main 1512 1506 PP____________ WP261995 33.6384 157.086 47 0 33.4225 158.465 6 992 0 0 41 77
1995287N08163 1995 81 WP MM WARD 1995-10-23 06:00:00 ET 34.0429 160.271 992 tokyo main 1572 1567 OO____________ jtwc_wp WP261995 34.1000 159.300 50 0 34.0000 161.000 6 992 0 0 0 43 76
1995287N08163 1995 81 WP MM WARD 1995-10-23 09:00:00 ET 34.5923 162.822 main 1646 1646 PP____________ WP261995 34.6003 161.653 50 0 34.5884 163.406 6 991 0 0 46 73
1995287N08163 1995 81 WP MM WARD 1995-10-23 12:00:00 ET 35.4200 165.620 990 tokyo main 1739 1739 OO____________ jtwc_wp WP261995 35.1000 164.100 50 0 35.5000 166.000 6 990 0 0 0 58 65
1995287N08163 1995 81 WP MM WARD 1995-10-23 15:00:00 ET 37.0150 169.332 main 1813 1813 _P____________ WP261995 -1 37.0150 169.332 6 990 0 0 63 61
1995287N08163 1995 81 WP MM WARD 1995-10-23 18:00:00 ET 38.5000 172.500 990 tokyo main 1841 1838 _O____________ -1 38.5000 172.500 6 990 0 0 0 46 59
1995287N08163 1995 81 WP MM WARD 1995-10-23 21:00:00 ET 39.3381 174.352 main 1865 1835 _P____________ -1 39.3381 174.352 6 989 0 0 31 61
1995287N08163 1995 81 WP MM WARD 1995-10-24 00:00:00 ET 40.0000 176.000 988 tokyo main 1830 1661 _O____________ -1 40.0000 176.000 6 988 0 0 0 34 66
1995287N08163 1995 81 WP MM WARD 1995-10-24 03:00:00 ET 40.7417 178.449 main 1656 1462 _P____________ -1 40.7417 178.449 6 985 0 0 44 70
1995287N08163 1995 81 EP CP WARD 1995-10-24 06:00:00 ET 41.5000 181.500 main 1454 _O____________ -1 41.5000 181.500 6 982 0 0 0 48 72

Digital Typhoon Data and Search

About IBTrACS Database

This database is a web-friendly format of International Best Track Archive for Climate Stewardship (IBTrACS), a global best track data archive curated by NOAA dating back to 1842.

Updated: 2021-10-19